Dawson Community Airport
KGDV : now visible

Airfield :











YOU CAN JOIN US ON...

 
LOGIN :

Register | Disclaimer

   EN    FR    IT 

 









Legend :    VFR   Marginal VFR   IFR   Intensive IFR   Very Intensive IFR
Visi :
Ceiling :
>= 8 km
>= 3000ft
5 to 8 km
1000 to 3000 ft
1500m to 5 km
500 to 1000 ft
800 to 1500m
200 to 500 ft
< 800m
< 200 ft
Symbols :   Thunderstorms  Fog  Heavy snow  Heavy precipitations  Wind > 20 kt







- Airport Elevation : 2458 ft


KGDV - Dawson Community

CURRENT METAR :
  • 201956Z AUTO 34013KT 10SM BKN031 BKN038 OVC049 20/14 A2976 RMK AO2 SLP069 T02000144

EXPIRED METARs :
  • 201856Z AUTO 06005KT 10SM BKN085 21/14 A2978 RMK AO2 SLP075 T02110144
  • 201756Z AUTO 01010KT 10SM CLR 21/14 A2976 RMK AO2 SLP068 60000 T02060144 10206 20128 58008

TAF KGDV
Valid from the 20 at 18:00 until the 21 at 18:00 UTC


201720Z 2018/2118 36012KT P6SM OVC060
FM210300 35012KT P6SM -SHRA BKN040
FM210500 35014KT 6SM -TSRA BKN035CB
FM211500 32015G25KT P6SM -SHRA OVC035
No reported NOTAMs for that airfield.



MET'MAP, your aeronautical weather chart ! - Copyright ORBIFLY December 2007 - Disclaimer

ORBIFLY MET'MAP TEAM :

Programming & Development : Alexandra Zaïnal
Concept & Development : Baudouin d'Aumeries
Co-Development & Prog : Marc-Olivier Méhu
Technical & hardware support : Manuel Goepfert

Contact : metmap@orbifly.com




SOURCES & CREDITS :

   NOAA       Earth
Advisory